KMMVKDLS

Guest
Details From KMMV - MC MINNVILLE MUNI
To KDLS - COLUMBIA GORGE RGNL THE DALLES MUNI
Flight Number -
Tags generated
Created
Modified
Stats Distance 87 nm / 161 km
Max Altitude 8,200 ft / 2,499 m
Waypoints 3
Social Downloads 0
Likes 0
Share VATSIM

Download

Looking for another format? Having issues loading an existing format? Contact us
Advertisement - Login to hide

Notes

Basic altitude profile: - Ascent Rate: 500ft/min - Ascent Speed: 50kts - Cruise Altitude: 5000ft - Cruise Speed: 50kts - Descent Rate: 500ft/min - Descent Speed: 50kts Options: - Use NATs: yes - Use PACOTS: yes - Use low airways: yes - Use high airways: yes

Route

KMMV GLARA KDLS

ID Type Via Altitude Latitude Longitude Leg Dist Tot Dist Heading (true) Name
O KMMV APT - 0 ft / 0 m 45.19435˚ -123.13567˚ - 0 nm - MC MINNVILLE MUNI
GLARA FIX - 8,200 ft / 2,499 m 45.27789˚ -122.60315˚ 23 nm 23 nm 77° / 78° -
O KDLS APT - 0 ft / 0 m 45.61943˚ -121.16830˚ 63 nm 86 nm 71° / 72° COLUMBIA GORGE RGNL THE DALLES MUNI

Altitude Profile

Advertisement - Login to hide

KMMV

Details ICAO KMMV (MMV)
Name MC MINNVILLE MUNI
Region United States
Timezone America/Los_Angeles (UTC-8.0)
Stats Elevation 163 ft / 50 m (AMSL)
Location 45.194348° -123.135667°
Runways 2
Magnetic Variation 15.290° E

METAR

KMMV 180053Z AUTO 22005KT 10SM SCT024 OVC035 08/06 A3017 RMK AO2 SLP217 T00780056

Decode

TAF

Not found

Departure Runways

ID Width Length Bearing (true) Bearing (mag) Surface Threshold Offset Overrun Length
04 151 ft / 46 m 5,411 ft / 1,649 m 57.10° 41.81° Asphalt 0 ft / 0 m 1,001 ft / 305 m
17 151 ft / 46 m 4,680 ft / 1,427 m 185.87° 170.58° Asphalt 0 ft / 0 m 0 ft / 0 m
22 151 ft / 46 m 5,411 ft / 1,649 m 237.12° 221.83° Asphalt 0 ft / 0 m 0 ft / 0 m
35 151 ft / 46 m 4,680 ft / 1,427 m 5.87° 350.58° Asphalt 0 ft / 0 m 0 ft / 0 m

KDLS

Details ICAO KDLS
Name COLUMBIA GORGE RGNL THE DALLES MUNI
Region United States
Timezone America/Los_Angeles (UTC-8.0)
Stats Elevation 247 ft / 75 m (AMSL)
Location 45.619429° -121.168304°
Runways 2
Magnetic Variation 15.032° E

METAR

KDLS 180053Z AUTO 00000KT 10SM CLR 06/03 A3011 RMK AO2 SLP197 T00610033

Decode

TAF

KDLS 172320Z 1800/1824 31007KT P6SM BKN050 OVC120 FM181300 31008KT P6SM -SHRA OVC035

Decode

Destination Runways

ID Width Length Bearing (true) Bearing (mag) Surface Threshold Offset Overrun Length
07 100 ft / 30 m 4,635 ft / 1,413 m 87.98° 72.95° Asphalt 440 ft / 134 m 0 ft / 0 m
12 100 ft / 30 m 5,095 ft / 1,553 m 144.67° 129.64° Asphalt 200 ft / 61 m 0 ft / 0 m
25 100 ft / 30 m 4,635 ft / 1,413 m 267.99° 252.96° Asphalt 196 ft / 60 m 0 ft / 0 m
30 100 ft / 30 m 5,095 ft / 1,553 m 324.68° 309.65° Asphalt 0 ft / 0 m 0 ft / 0 m

Popular Alternatives